Lackland Air Force Base (Kelly Field Annex) Airport
KSKF : rendu visible

Aérodrome :











RETROUVEZ-NOUS SUR...

 
LOGIN :

S'inscrire | Disclaimer

   EN    FR    IT 

 









Légende :    VFR   VFR Marginal   IFR   IFR Intensif   IFR Très Intensif
Visi : 
Plafond : 
>= 8 km
>= 3000ft
5 à 8 km
1000 à 3000 ft
1500m à 5 km
500 à 1000 ft
800 à 1500m
200 à 500 ft
< 800m
< 200 ft
Symboles :   Orages  Brouillard  Fortes neiges  Fortes précipitations  Vent > 20 kt






- Altitude de l'aérodrome : 691 ft


KSKF - Lackland Air Force Base (Kelly Field Annex)

DERNIER METAR :
  • 190256Z AUTO 02012KT 10SM -RA FEW003 SCT013 OVC019 12/08 A3014 RMK AO2 RAE20DZB20E21RAB21E23RAB46 CIG 013V019 SLP204 P0000 60000 T01200083 52037 $

METARs EXPIRÉS :
  • 190246Z AUTO 02014G19KT 7SM -RA SCT004 BKN013 OVC019 12/08 A3013 RMK AO2 RAE20DZB20E21RAB21E23RAB46 CIG 010V019 BKN V SCT SLP201 $
  • 190223Z AUTO 03014G21KT 10SM FEW004 SCT010 OVC019 12/08 A3012 RMK AO2 RAE20DZB20E21RAB21E23 SLP197 $
  • 190212Z AUTO 03011G19KT 10SM -RA SCT005 SCT009 OVC019 12/08 A3012 RMK AO2 CIG 010V019 PRESRR SLP197 $
  • 190157Z AUTO 02013KT 10SM -RA FEW010 OVC019 12/08 A3010 RMK AO2 SLP190 $
  • 190156Z AUTO 02013KT 10SM -RA OVC019 12/08 A3011 RMK AO2 RAB52 SLP194 P0000 T01240083 $
  • 190056Z AUTO 36016G25KT 10SM OVC017 13/09 A3007 RMK AO2 SLP180 T01280091 $

TAF TAF KSKF
Valide du 19 à 02h jusqu'au 20 à 08h UTC


190200Z 1902/2008 01015G20KT 9999 VCSH SCT007 SCT010 OVC018 QNH3009INS
TEMPO 1902/1910 02015G26KT 9999 -SHRA SCT005 OVC009
BECMG 1909/1910 03015KT 9999 NSW OVC009 QNH3024INS
BECMG 1914/1915 03012G18KT 8000 BR VCSH OVC007 QNH3026INS
BECMG 1920/1921 04009KT 3200 BR VCSH OVC005 QNH3017INS
BECMG 2002/2003 07009KT 1600 -DZ BR OVC003 QNH3013INS TX12/1902Z TN08/1913Z



MET'MAP, la Météo Aéronautique d'un coup d'oeil ! - Copyright ORBIFLY Décembre 2007 - Disclaimer

ORBIFLY MET'MAP TEAM :

Programmation & Développement : Alexandra Zaïnal
Sur une idée originale de : Baudouin d'Aumeries
Assistance à la programmation : Marc-Olivier Méhu
Soutien technique & logistique : Manuel Goepfert

Contact : metmap@orbifly.com




SOURCES & CREDITS :

   NOAA       Earth
Advisory